Time;durP1;ratioP1;P1;durP2;ratioP2;P2;SDS_P1;SDS_P2;PMS_P1;PMS_P2;Temp;Humidity;BMP_temperature;BMP_pressure;BME280_temperature;BME280_humidity;BME280_pressure;Samples;Min_cycle;Max_cycle;Signal;HPM_P1;HPM_P2
2022/10/07 00:01:53;;;;;;;2.63;1.80;;;;;;;8.50;84.45;102696.53;4973837;28;20061;-85
2022/10/07 00:04:18;;;;;;;2.42;1.60;;;;;;;8.48;84.37;102696.50;4974019;28;20431;-85
2022/10/07 00:06:44;;;;;;;1.90;1.40;;;;;;;8.48;84.75;102703.41;4973501;28;20110;-84
2022/10/07 00:09:10;;;;;;;1.75;1.60;;;;;;;8.45;84.60;102690.34;4973634;28;20470;-85
2022/10/07 00:11:36;;;;;;;1.80;1.60;;;;;;;8.45;85.65;102685.19;4974222;28;20066;-85
2022/10/07 00:14:03;;;;;;;2.35;1.77;;;;;;;8.43;85.19;102682.56;4973180;28;20037;-85
2022/10/07 00:16:35;;;;;;;3.08;1.58;;;;;;;8.42;85.30;102682.53;4973873;28;20114;-85
2022/10/07 00:19:04;;;;;;;3.38;1.60;;;;;;;8.42;85.34;102677.34;4973754;28;20053;-85
2022/10/07 00:21:32;;;;;;;3.55;1.70;;;;;;;8.40;84.67;102684.19;4973241;28;20035;-85
2022/10/07 00:23:58;;;;;;;1.67;1.17;;;;;;;8.38;84.44;102679.00;4975023;28;20501;-85
2022/10/07 00:26:33;;;;;;;2.47;1.60;;;;;;;8.36;84.74;102678.06;4977790;28;20065;-85
2022/10/07 00:28:59;;;;;;;1.87;1.40;;;;;;;8.32;85.19;102677.13;4976669;28;20286;-85
2022/10/07 00:31:28;;;;;;;1.20;1.17;;;;;;;8.31;84.88;102672.78;4977760;28;20494;-85
2022/10/07 00:33:54;;;;;;;1.77;1.48;;;;;;;8.31;85.31;102675.38;4976899;28;20042;-85
2022/10/07 00:36:25;;;;;;;1.67;1.25;;;;;;;8.27;85.12;102663.22;4976954;28;20027;-85
2022/10/07 00:38:54;;;;;;;1.30;1.20;;;;;;;8.26;85.61;102660.59;4977396;28;20034;-85
2022/10/07 00:41:23;;;;;;;1.42;1.33;;;;;;;8.25;85.70;102661.44;4977871;28;20027;-86
2022/10/07 00:43:48;;;;;;;1.30;1.20;;;;;;;8.24;85.52;102657.09;4977409;28;20023;-85
2022/10/07 00:46:33;;;;;;;1.13;1.10;;;;;;;8.24;85.12;102652.81;4977248;28;20022;-86
2022/10/07 00:49:08;;;;;;;1.20;1.10;;;;;;;8.23;86.11;102655.34;4976286;28;20128;-85
2022/10/07 00:51:34;;;;;;;1.73;1.20;;;;;;;8.22;85.98;102648.44;4977691;28;20030;-85
2022/10/07 00:54:02;;;;;;;2.45;1.40;;;;;;;8.22;85.77;102657.06;4976881;28;20050;-85
2022/10/07 00:56:29;;;;;;;2.13;1.50;;;;;;;8.22;85.53;102646.72;4976929;28;20038;-85
2022/10/07 00:58:57;;;;;;;2.15;1.38;;;;;;;8.21;85.12;102649.28;4977185;28;20035;-85
2022/10/07 01:01:23;;;;;;;1.27;1.17;;;;;;;8.22;85.63;102651.03;4977230;28;20031;-85
2022/10/07 01:03:49;;;;;;;1.02;1.00;;;;;;;8.22;85.66;102638.09;4976544;28;20031;-85
2022/10/07 01:06:15;;;;;;;1.47;1.30;;;;;;;8.22;85.57;102635.50;4977067;28;20034;-85
2022/10/07 01:08:42;;;;;;;3.00;1.50;;;;;;;8.22;87.64;102632.91;4977363;28;20135;-85
2022/10/07 01:11:13;;;;;;;;;;;;;;;8.21;86.09;102633.75;4976432;28;20023;-86
2022/10/07 01:13:50;;;;;;;3.40;1.70;;;;;;;8.19;86.62;102633.69;4976724;28;19914;-85
2022/10/07 01:16:24;;;;;;;2.70;1.83;;;;;;;8.18;87.33;102625.09;4977280;28;20057;-85
2022/10/07 01:19:25;;;;;;;2.70;1.55;;;;;;;8.17;87.20;102619.84;4976081;28;20439;-86
2022/10/07 01:21:59;;;;;;;2.92;1.70;;;;;;;8.16;86.30;102618.13;4974272;28;20039;-85
2022/10/07 01:24:35;;;;;;;1.52;1.30;;;;;;;8.16;85.67;102616.41;4976184;28;20073;-85
2022/10/07 01:27:03;;;;;;;1.60;1.50;;;;;;;8.19;85.02;102616.50;4976629;28;20487;-85
2022/10/07 01:29:54;;;;;;;2.63;1.70;;;;;;;8.17;86.22;102615.56;4976622;28;20480;-85
2022/10/07 01:32:44;;;;;;;2.05;1.20;;;;;;;8.15;86.64;102609.47;4976016;28;20404;-85
2022/10/07 01:35:17;;;;;;;1.67;1.30;;;;;;;8.14;85.99;102604.28;4976129;28;20073;-86
2022/10/07 01:37:47;;;;;;;1.42;1.27;;;;;;;8.14;85.96;102602.56;4976001;28;20109;-85
2022/10/07 01:40:16;;;;;;;1.42;1.10;;;;;;;8.13;86.32;102593.06;4976269;28;20126;-86
2022/10/07 01:42:44;;;;;;;3.35;1.73;;;;;;;8.12;87.32;102585.28;4976485;28;20045;-86
2022/10/07 01:45:13;;;;;;;2.05;1.35;;;;;;;8.08;86.48;102584.34;4975535;28;20125;-85
2022/10/07 01:47:38;;;;;;;2.42;1.50;;;;;;;8.09;85.99;102580.03;4976586;28;20027;-86
2022/10/07 01:50:10;;;;;;;1.50;1.20;;;;;;;8.07;86.07;102577.41;4975938;28;20081;-86
2022/10/07 01:53:14;;;;;;;3.33;1.90;;;;;;;8.04;87.45;102572.16;4975274;28;20085;-85
2022/10/07 01:55:54;;;;;;;2.60;1.40;;;;;;;8.02;86.78;102571.25;4942718;28;20062;-86
2022/10/07 01:58:30;;;;;;;2.33;1.83;;;;;;;8.00;86.95;102566.06;4976303;28;20039;-86
2022/10/07 02:01:08;;;;;;;2.78;1.80;;;;;;;7.98;86.68;102559.09;4975503;28;20026;-85
2022/10/07 02:04:04;;;;;;;2.20;1.60;;;;;;;7.96;85.86;102559.03;4975822;28;20027;-86
2022/10/07 02:06:42;;;;;;;3.80;1.70;;;;;;;7.98;87.70;102553.94;4975481;28;20043;-86
2022/10/07 02:09:28;;;;;;;2.83;1.75;;;;;;;7.97;86.54;102554.78;4975733;28;20464;-85
2022/10/07 02:12:03;;;;;;;3.72;1.70;;;;;;;7.96;87.19;102556.47;4975115;28;20094;-86
2022/10/07 02:14:37;;;;;;;2.88;1.60;;;;;;;7.95;86.51;102540.94;4975527;28;20034;-85
2022/10/07 02:17:09;;;;;;;2.08;1.70;;;;;;;7.94;86.48;102539.19;4975645;28;20054;-86
2022/10/07 02:19:38;;;;;;;1.42;1.30;;;;;;;7.93;87.09;102537.44;4975980;28;20109;-86
2022/10/07 02:22:06;;;;;;;2.00;1.30;;;;;;;7.93;86.61;102534.84;4974860;28;20026;-85
2022/10/07 02:24:34;;;;;;;2.55;1.40;;;;;;;7.91;87.37;102531.34;4975953;28;20030;-85
2022/10/07 02:27:06;;;;;;;1.73;1.30;;;;;;;7.91;86.79;102539.09;4974720;28;20027;-86
2022/10/07 02:29:34;;;;;;;1.92;1.42;;;;;;;7.91;87.26;102532.22;4975878;28;20062;-86
2022/10/07 02:32:04;;;;;;;1.35;1.20;;;;;;;7.90;87.31;102527.91;4975465;28;20031;-85
2022/10/07 02:34:31;;;;;;;1.40;1.30;;;;;;;7.89;87.15;102526.16;4974857;28;20054;-85
2022/10/07 02:37:02;;;;;;;2.03;1.30;;;;;;;7.87;86.72;102520.06;4974846;28;20379;-86
2022/10/07 02:39:27;;;;;;;1.85;1.20;;;;;;;7.88;86.47;102514.06;4975290;28;20058;-86
2022/10/07 02:42:24;;;;;;;1.27;1.17;;;;;;;7.86;86.74;102514.03;4974726;28;20057;-85
2022/10/07 02:44:54;;;;;;;2.33;1.00;;;;;;;7.85;86.75;102512.28;4975275;28;20073;-85
2022/10/07 02:47:51;;;;;;;1.33;1.17;;;;;;;7.84;86.80;102507.94;4974664;28;20038;-86
2022/10/07 02:50:22;;;;;;;1.08;1.00;;;;;;;7.82;86.54;102503.59;4966383;28;20498;-86
2022/10/07 02:52:51;;;;;;;1.23;1.13;;;;;;;7.80;86.69;102493.19;4975394;28;20030;-85
2022/10/07 02:55:21;;;;;;;1.67;1.40;;;;;;;7.79;86.37;102490.59;4974042;28;20087;-85
2022/10/07 02:57:50;;;;;;;1.35;1.00;;;;;;;7.79;86.90;102495.75;4974548;28;20035;-85
2022/10/07 03:00:17;;;;;;;1.45;1.27;;;;;;;7.77;87.20;102500.00;4975256;28;20535;-86
2022/10/07 03:02:53;;;;;;;;;;;;;;;7.72;87.72;102493.00;4974748;28;20030;-86
2022/10/07 03:05:21;;;;;;;2.42;1.55;;;;;;;7.69;87.86;102492.06;4975148;28;19924;-85
2022/10/07 03:07:48;;;;;;;2.00;1.17;;;;;;;7.67;88.36;102491.16;4975186;28;20035;-86
2022/10/07 03:10:15;;;;;;;2.05;1.40;;;;;;;7.63;88.47;102486.78;4973995;28;20034;-86
2022/10/07 03:12:41;;;;;;;4.25;1.55;;;;;;;7.63;87.89;102484.19;4974705;28;20039;-85
2022/10/07 03:15:07;;;;;;;2.00;1.50;;;;;;;7.63;87.84;102486.78;4974664;28;20035;-85
2022/10/07 03:17:32;;;;;;;1.65;1.50;;;;;;;7.63;87.95;102487.63;4973946;28;20061;-86
2022/10/07 03:19:58;;;;;;;2.10;1.48;;;;;;;7.62;87.51;102480.72;4974674;28;20046;-86
2022/10/07 03:22:23;;;;;;;2.30;1.42;;;;;;;7.61;88.04;102472.94;4974578;28;20480;-85
2022/10/07 03:24:48;;;;;;;1.75;1.40;;;;;;;7.61;87.87;102473.81;4973694;28;20069;-86
2022/10/07 03:27:14;;;;;;;2.10;1.60;;;;;;;7.62;87.03;102466.94;4974136;28;20033;-86
2022/10/07 03:29:39;;;;;;;2.97;1.75;;;;;;;7.61;88.68;102465.19;4974751;28;20357;-86
2022/10/07 03:32:04;;;;;;;1.75;1.55;;;;;;;7.60;87.60;102464.31;4973752;28;20503;-85
2022/10/07 03:34:30;;;;;;;3.55;1.67;;;;;;;7.59;87.60;102462.59;4974297;28;20043;-85
2022/10/07 03:36:56;;;;;;;3.22;1.80;;;;;;;7.58;89.01;102463.41;4973991;28;20029;-85
2022/10/07 03:39:21;;;;;;;2.47;1.67;;;;;;;7.58;87.85;102459.09;4973365;28;20031;-85
2022/10/07 03:41:48;;;;;;;4.20;2.13;;;;;;;7.56;88.49;102458.19;4974373;28;20446;-86
2022/10/07 03:44:14;;;;;;;3.65;1.90;;;;;;;7.58;88.46;102456.53;4974321;28;20027;-85
2022/10/07 03:46:40;;;;;;;3.17;2.00;;;;;;;7.57;89.06;102453.91;4973885;28;20368;-86
2022/10/07 03:49:05;;;;;;;2.93;1.80;;;;;;;7.57;89.10;102452.19;4974003;28;20114;-85
2022/10/07 03:51:30;;;;;;;3.57;1.73;;;;;;;7.56;88.43;102450.44;4973322;28;20066;-85
2022/10/07 03:53:57;;;;;;;2.00;1.80;;;;;;;7.56;88.70;102450.44;4974014;28;20195;-86
2022/10/07 03:56:22;;;;;;;2.75;1.90;;;;;;;7.55;88.45;102446.09;4974191;28;20365;-86
2022/10/07 03:58:48;;;;;;;2.17;1.55;;;;;;;7.54;88.96;102453.84;4972335;28;20026;-86
2022/10/07 04:01:14;;;;;;;1.83;1.63;;;;;;;7.53;88.24;102452.09;4974172;28;20047;-86
2022/10/07 04:03:40;;;;;;;2.28;1.65;;;;;;;7.51;87.79;102449.47;4974326;28;20041;-85
2022/10/07 04:06:05;;;;;;;2.90;1.60;;;;;;;7.52;88.98;102448.66;4973173;28;20385;-86
2022/10/07 04:08:32;;;;;;;1.50;1.40;;;;;;;7.51;88.23;102456.34;4974018;28;20023;-86
2022/10/07 04:10:57;;;;;;;1.92;1.48;;;;;;;7.51;88.17;102446.00;4973610;28;20460;-86
2022/10/07 04:13:23;;;;;;;2.08;1.27;;;;;;;7.50;87.66;102446.84;4973328;28;20038;-86
2022/10/07 04:15:49;;;;;;;1.23;1.17;;;;;;;7.49;87.65;102440.81;4973837;28;20031;-86
2022/10/07 04:18:14;;;;;;;2.17;1.90;;;;;;;7.46;89.68;102439.88;4974090;28;20495;-86
2022/10/07 04:20:40;;;;;;;2.53;1.75;;;;;;;7.44;88.55;102437.25;4972998;28;20514;-86
2022/10/07 04:23:05;;;;;;;3.13;1.75;;;;;;;7.44;87.85;102437.25;4973776;28;20030;-86
2022/10/07 04:25:33;;;;;;;2.13;1.60;;;;;;;7.44;87.73;102438.97;4974041;28;20030;-86
2022/10/07 04:28:01;;;;;;;2.47;1.67;;;;;;;7.42;87.98;102438.94;4973069;28;20023;-86
2022/10/07 04:30:28;;;;;;;2.00;1.38;;;;;;;7.41;88.22;102439.78;4973907;28;20460;-85
2022/10/07 04:32:53;;;;;;;2.60;1.42;;;;;;;7.40;88.32;102438.03;4973533;28;20031;-85
2022/10/07 04:35:20;;;;;;;1.45;1.30;;;;;;;7.39;88.33;102438.84;4972894;28;20031;-85
2022/10/07 04:37:50;;;;;;;2.35;1.52;;;;;;;7.38;88.05;102430.22;4973726;28;20027;-85
2022/10/07 04:40:18;;;;;;;1.88;1.40;;;;;;;7.37;87.69;102432.78;4973813;28;20026;-85
2022/10/07 04:45:27;;;;;;;1.90;1.35;;;;;;;7.32;87.96;102434.41;4974159;28;20114;-85
2022/10/07 04:47:52;;;;;;;1.50;1.40;;;;;;;7.31;87.75;102440.38;4972428;28;20476;-85
2022/10/07 04:50:18;;;;;;;0.88;0.88;;;;;;;7.30;87.75;102441.22;4973452;28;20035;-86
2022/10/07 04:52:43;;;;;;;2.75;1.70;;;;;;;7.29;88.27;102434.31;4973370;28;20376;-85
2022/10/07 04:55:11;;;;;;;2.83;1.60;;;;;;;7.24;89.02;102432.47;4972733;28;20051;-85
2022/10/07 04:57:37;;;;;;;2.92;1.90;;;;;;;7.23;88.32;102425.56;4973595;28;20069;-85
2022/10/07 05:00:03;;;;;;;3.67;1.85;;;;;;;7.24;88.15;102424.72;4973316;28;20050;-85
2022/10/07 05:02:28;;;;;;;2.67;1.65;;;;;;;7.23;88.52;102417.81;4972911;28;20059;-85
2022/10/07 05:04:53;;;;;;;2.40;1.50;;;;;;;7.22;88.19;102415.22;4973201;28;20062;-85
2022/10/07 05:07:19;;;;;;;2.17;1.50;;;;;;;7.21;88.72;102416.03;4973633;28;20390;-85
2022/10/07 05:09:44;;;;;;;6.07;2.20;;;;;;;7.14;89.28;102419.31;4973540;28;20038;-85
2022/10/07 05:12:10;;;;;;;3.87;2.13;;;;;;;7.13;88.77;102420.16;4976987;28;20030;-85
2022/10/07 05:14:35;;;;;;;3.47;1.83;;;;;;;7.12;88.24;102421.84;4976747;28;20023;-85
2022/10/07 05:17:00;;;;;;;2.60;1.80;;;;;;;7.12;88.25;102419.25;4976072;28;20368;-85
2022/10/07 05:19:26;;;;;;;2.28;1.70;;;;;;;7.13;88.15;102413.28;4976378;28;20114;-85
2022/10/07 05:21:51;;;;;;;2.63;1.80;;;;;;;7.13;88.19;102415.84;4976744;28;20031;-84
2022/10/07 05:24:17;;;;;;;2.03;1.60;;;;;;;7.10;88.09;102408.91;4976174;28;20031;-85
2022/10/07 05:26:42;;;;;;;1.50;1.30;;;;;;;7.08;88.36;102402.84;4976702;28;20051;-86
2022/10/07 05:29:08;;;;;;;1.38;1.20;;;;;;;7.06;88.53;102406.22;4976666;28;20034;-85
2022/10/07 05:31:33;;;;;;;2.65;1.33;;;;;;;7.04;88.29;102402.72;4976003;28;20038;-85
2022/10/07 05:33:59;;;;;;;1.47;1.23;;;;;;;7.02;88.09;102402.69;4976249;28;20046;-85
2022/10/07 05:36:24;;;;;;;2.15;1.50;;;;;;;7.02;87.99;102400.13;4976513;28;20023;-84
2022/10/07 05:38:52;;;;;;;1.60;1.50;;;;;;;7.01;88.09;102398.38;4975504;28;20369;-85
2022/10/07 05:41:18;;;;;;;1.30;1.20;;;;;;;7.01;88.16;102392.31;4976792;28;20030;-85
2022/10/07 05:43:46;;;;;;;4.70;1.73;;;;;;;6.98;89.19;102392.25;4976706;28;20049;-85
2022/10/07 05:46:14;;;;;;;3.95;1.80;;;;;;;6.97;89.33;102399.13;4973991;28;20027;-85
2022/10/07 05:48:39;;;;;;;2.42;1.70;;;;;;;6.94;89.42;102397.34;4976519;28;20027;-85
2022/10/07 05:51:09;;;;;;;2.55;1.80;;;;;;;6.93;89.25;102395.59;4975030;28;20026;-84
2022/10/07 05:53:35;;;;;;;2.75;1.55;;;;;;;6.89;89.24;102388.59;4976375;28;20050;-85
2022/10/07 05:56:05;;;;;;;2.15;1.55;;;;;;;6.90;89.27;102390.34;4975776;28;20019;-85
2022/10/07 05:58:30;;;;;;;1.85;1.60;;;;;;;6.88;89.45;102389.44;4975279;28;20391;-87
2022/10/07 06:00:57;;;;;;;4.75;2.03;;;;;;;6.88;90.18;102381.69;4976201;28;20027;-86
2022/10/07 06:03:24;;;;;;;;;;;;;;;6.87;90.30;102387.69;4976723;28;20081;-86
2022/10/07 06:05:50;;;;;;;3.45;1.80;;;;;;;6.86;90.18;102383.38;4975593;28;19914;-86
2022/10/07 06:08:19;;;;;;;1.85;1.58;;;;;;;6.86;90.03;102382.50;4976129;28;20050;-86
2022/10/07 06:13:29;;;;;;;3.20;1.65;;;;;;;6.84;90.41;102379.88;4975757;28;20415;-87
2022/10/07 06:16:06;;;;;;;2.75;1.80;;;;;;;6.83;91.41;102382.41;4975484;28;20027;-86
2022/10/07 06:18:35;;;;;;;3.92;1.80;;;;;;;6.85;91.55;102379.06;4975623;28;20126;-87
2022/10/07 06:21:00;;;;;;;2.65;1.70;;;;;;;6.86;90.80;102380.81;4974280;28;20022;-86
2022/10/07 06:23:27;;;;;;;2.60;1.80;;;;;;;6.88;91.29;102371.38;4975790;28;20031;-87
2022/10/07 06:25:57;;;;;;;2.85;1.80;;;;;;;6.91;92.88;102376.59;4975467;28;20019;-85
2022/10/07 06:28:23;;;;;;;5.38;2.10;;;;;;;6.95;92.55;102367.22;4974924;28;20023;-86
2022/10/07 06:30:55;;;;;;;5.38;2.17;;;;;;;7.02;92.56;102373.41;4975837;28;20102;-85
2022/10/07 06:33:20;;;;;;;7.07;2.30;;;;;;;7.07;93.38;102366.66;4972565;28;20072;-84
2022/10/07 06:35:45;;;;;;;5.05;2.10;;;;;;;7.13;92.14;102371.09;4975625;28;20364;-85
2022/10/07 06:38:11;;;;;;;6.45;2.40;;;;;;;7.20;93.12;102367.81;4975388;28;20074;-89
2022/10/07 06:40:37;;;;;;;3.42;1.92;;;;;;;7.22;92.81;102371.31;4975634;28;20019;-86
2022/10/07 06:43:02;;;;;;;4.43;2.20;;;;;;;7.27;91.94;102364.53;4975262;28;20046;-85
2022/10/07 06:45:31;;;;;;;6.27;2.10;;;;;;;7.32;92.84;102369.81;4975483;28;20062;-86
2022/10/07 06:47:56;;;;;;;3.08;2.00;;;;;;;7.40;92.44;102374.31;4974167;28;20027;-84
2022/10/07 06:50:21;;;;;;;4.72;2.00;;;;;;;7.56;92.89;102366.91;4975350;28;20042;-85
2022/10/07 06:52:46;;;;;;;2.47;1.70;;;;;;;7.68;92.13;102369.75;4975158;28;20082;-85
2022/10/07 06:55:12;;;;;;;6.35;2.00;;;;;;;7.76;93.01;102362.16;4974065;28;20113;-85
2022/10/07 06:57:38;;;;;;;6.13;2.00;;;;;;;7.83;91.91;102365.72;4972204;28;20041;-85
2022/10/07 07:00:04;;;;;;;5.30;2.10;;;;;;;7.88;92.93;102362.41;4973208;28;20030;-85
2022/10/07 07:02:29;;;;;;;2.67;1.77;;;;;;;7.97;91.47;102379.81;4959540;28;20066;-85
2022/10/07 07:04:56;;;;;;;5.78;2.20;;;;;;;8.01;91.86;102384.22;4955743;28;20279;-85
2022/10/07 07:07:22;;;;;;;;;;;;;;;8.07;92.50;102383.47;4955976;28;20051;-85
2022/10/07 07:09:48;;;;;;;6.28;2.03;;;;;;;8.13;91.47;102380.13;4955039;28;19910;-85
2022/10/07 07:12:13;;;;;;;6.10;2.30;;;;;;;8.19;92.10;102377.66;4954412;29;20027;-85
2022/10/07 07:14:39;;;;;;;5.47;2.00;;;;;;;8.26;91.36;102371.78;4970815;28;20495;-85
2022/10/07 07:17:06;;;;;;;3.72;2.00;;;;;;;8.34;92.28;102377.06;4973936;28;20380;-85
2022/10/07 07:19:32;;;;;;;2.92;1.80;;;;;;;8.41;91.96;102370.28;4974192;28;20126;-85
2022/10/07 07:21:57;;;;;;;6.27;2.30;;;;;;;8.48;92.04;102373.06;4974224;28;20035;-85
2022/10/07 07:24:22;;;;;;;3.93;2.10;;;;;;;8.56;91.94;102375.78;4973354;28;20046;-86
2022/10/07 07:26:48;;;;;;;4.13;1.90;;;;;;;8.65;92.22;102370.75;4974596;28;20041;-86
2022/10/07 07:29:15;;;;;;;4.95;2.08;;;;;;;8.74;91.51;102375.22;4974346;28;20487;-86
2022/10/07 07:31:41;;;;;;;3.90;1.90;;;;;;;8.83;91.45;102371.94;4973770;28;20449;-87
2022/10/07 07:34:10;;;;;;;4.53;2.03;;;;;;;8.94;91.55;102377.28;4974012;28;20120;-86
2022/10/07 07:36:37;;;;;;;4.60;1.85;;;;;;;9.08;91.81;102377.47;4973537;28;20035;-85
2022/10/07 07:39:06;;;;;;;7.13;2.50;;;;;;;9.20;91.32;102374.22;4974366;28;20038;-87
2022/10/07 07:41:33;;;;;;;4.32;1.92;;;;;;;9.30;90.74;102370.94;4973906;28;20027;-85
2022/10/07 07:44:01;;;;;;;3.72;1.92;;;;;;;9.39;90.59;102359.84;4973557;28;20157;-84
2022/10/07 07:46:33;;;;;;;3.28;1.60;;;;;;;9.49;90.33;102366.88;4974393;28;20048;-84
2022/10/07 07:48:58;;;;;;;4.80;2.08;;;;;;;9.58;90.26;102363.53;4973754;28;20039;-84
2022/10/07 07:51:24;;;;;;;6.73;2.30;;;;;;;9.69;89.43;102361.94;4973285;28;20049;-84
2022/10/07 07:53:49;;;;;;;10.20;2.67;;;;;;;9.77;89.18;102362.03;4973741;28;20038;-84
2022/10/07 07:56:16;;;;;;;8.03;2.47;;;;;;;9.88;87.83;102365.63;4974015;28;20035;-85
2022/10/07 07:58:41;;;;;;;5.70;2.20;;;;;;;9.95;88.80;102363.13;4973140;28;20030;-85
2022/10/07 08:01:10;;;;;;;7.53;2.37;;;;;;;10.02;88.32;102363.19;4973735;28;20062;-85
2022/10/07 08:03:39;;;;;;;9.65;2.63;;;;;;;10.12;88.19;102364.19;4974136;28;20081;-85
2022/10/07 08:06:06;;;;;;;4.45;2.30;;;;;;;10.23;87.92;102360.81;4972941;28;20033;-84
2022/10/07 08:08:33;;;;;;;10.90;2.67;;;;;;;10.33;87.72;102362.66;4974304;28;20031;-84
2022/10/07 08:11:09;;;;;;;5.53;2.33;;;;;;;10.45;87.65;102368.00;4973824;28;20097;-85
2022/10/07 08:13:35;;;;;;;5.75;2.25;;;;;;;10.54;86.62;102361.16;4973403;28;20038;-84
2022/10/07 08:16:03;;;;;;;6.40;2.30;;;;;;;10.63;86.83;102364.72;4973320;28;20070;-84
2022/10/07 08:18:32;;;;;;;8.20;2.45;;;;;;;10.72;85.60;102357.84;4973792;28;20117;-85
2022/10/07 08:20:59;;;;;;;9.52;2.85;;;;;;;10.80;85.89;102357.06;4968242;28;20030;-84
2022/10/07 08:23:25;;;;;;;6.53;2.50;;;;;;;10.90;85.58;102363.22;4973246;28;20045;-84
2022/10/07 08:25:58;;;;;;;11.68;2.80;;;;;;;11.08;85.58;102359.88;4963104;28;20433;-84
2022/10/07 08:28:25;;;;;;;5.72;2.30;;;;;;;11.27;86.10;102347.00;4953930;28;20031;-83
2022/10/07 08:30:51;;;;;;;5.60;2.50;;;;;;;11.44;84.96;102347.09;4958344;28;20031;-84
2022/10/07 08:33:17;;;;;;;6.32;2.38;;;;;;;11.54;84.46;102348.88;4971738;28;20499;-84
2022/10/07 08:35:47;;;;;;;7.22;2.55;;;;;;;11.66;83.67;102347.19;4972049;28;20584;-82
2022/10/07 08:38:14;;;;;;;4.85;2.45;;;;;;;11.76;83.32;102345.50;4972556;28;20058;-85
2022/10/07 08:40:45;;;;;;;5.93;2.30;;;;;;;11.82;83.21;102341.19;4970972;28;20431;-83
2022/10/07 08:43:11;;;;;;;6.30;2.30;;;;;;;11.91;82.46;102332.53;4971429;28;20050;-87
2022/10/07 08:45:37;;;;;;;6.77;2.47;;;;;;;11.96;83.54;102346.44;4974795;28;20109;-85
2022/10/07 08:48:06;;;;;;;7.17;2.50;;;;;;;12.02;82.71;102341.28;4975466;28;20027;-88
2022/10/07 08:51:01;;;;;;;7.05;2.60;;;;;;;12.10;83.21;102337.84;4977731;28;20034;-87
2022/10/07 08:53:30;;;;;;;5.75;2.30;;;;;;;12.26;83.06;102328.34;4977647;28;20054;-87
2022/10/07 08:56:11;;;;;;;7.07;2.50;;;;;;;12.41;81.65;102330.09;4975978;28;20026;-86
2022/10/07 08:58:46;;;;;;;6.35;2.42;;;;;;;12.54;81.18;102334.44;4977482;28;20086;-86
2022/10/07 09:01:35;;;;;;;4.38;2.00;;;;;;;12.64;80.96;102314.44;4976130;28;20487;-86
2022/10/07 09:04:25;;;;;;;3.65;1.80;;;;;;;12.75;81.60;102314.47;4976977;28;20027;-85
2022/10/07 09:06:59;;;;;;;5.20;2.00;;;;;;;12.80;81.14;102318.78;4977031;28;20415;-86
2022/10/07 09:09:31;;;;;;;5.28;2.22;;;;;;;12.81;79.19;102314.44;4976584;28;20037;-86
2022/10/07 09:11:59;;;;;;;5.40;2.13;;;;;;;12.83;80.18;102310.94;4976806;28;20027;-86
2022/10/07 09:14:36;;;;;;;7.28;2.22;;;;;;;12.91;80.22;102312.69;4976444;28;20476;-86
2022/10/07 09:17:17;;;;;;;6.07;1.90;;;;;;;13.07;79.00;102310.94;4975993;28;20038;-86
2022/10/07 09:19:56;;;;;;;6.70;2.00;;;;;;;13.23;79.35;102306.53;4977117;28;20046;-87
2022/10/07 09:22:36;;;;;;;5.45;1.95;;;;;;;13.32;78.46;102301.28;4976404;28;20061;-87
2022/10/07 09:25:11;;;;;;;5.80;2.00;;;;;;;13.38;78.31;102303.91;4975963;28;20030;-87
2022/10/07 09:27:37;;;;;;;3.83;1.88;;;;;;;13.49;77.98;102296.03;4976347;28;20554;-86
2022/10/07 09:30:03;;;;;;;6.40;2.20;;;;;;;13.63;77.50;102298.59;4974931;28;20058;-87
2022/10/07 09:32:29;;;;;;;7.20;2.20;;;;;;;13.77;78.46;102295.94;4976130;28;20030;-87
2022/10/07 09:34:54;;;;;;;4.80;2.00;;;;;;;13.92;78.78;102299.31;4976255;28;20065;-86
2022/10/07 09:37:26;;;;;;;4.13;1.80;;;;;;;13.98;77.33;102299.28;4975574;28;20062;-86
2022/10/07 09:40:15;;;;;;;6.10;2.10;;;;;;;13.92;76.54;102297.56;4975981;28;20048;-86
2022/10/07 09:42:44;;;;;;;7.63;2.42;;;;;;;13.90;76.78;102281.91;4976739;28;20035;-85
2022/10/07 09:45:30;;;;;;;5.40;1.65;;;;;;;14.03;77.08;102281.84;4975814;28;20109;-83
2022/10/07 09:47:59;;;;;;;6.70;1.60;;;;;;;14.17;77.16;102281.75;4976782;28;20026;-86
2022/10/07 09:50:31;;;;;;;5.43;1.77;;;;;;;14.29;77.62;102273.84;4975738;28;20274;-87
2022/10/07 09:52:57;;;;;;;2.58;1.40;;;;;;;14.36;78.05;102274.63;4976133;28;20114;-86
2022/10/07 09:55:40;;;;;;;2.80;1.53;;;;;;;14.48;77.27;102277.13;4975939;28;20127;-88
2022/10/07 09:58:25;;;;;;;3.38;1.38;;;;;;;14.63;74.32;102264.81;4975498;28;20035;-85
2022/10/07 10:00:56;;;;;;;3.53;1.60;;;;;;;14.77;75.60;102260.38;5028965;23;20530;-96
2022/10/07 10:03:31;;;;;;;4.78;1.70;;;;;;;14.93;74.00;102263.69;4977958;28;20435;-87
2022/10/07 10:05:59;;;;;;;5.00;1.40;;;;;;;15.03;73.69;102264.44;4975442;28;20503;-86
2022/10/07 10:08:31;;;;;;;7.22;1.80;;;;;;;15.16;72.79;102261.66;4976563;28;20034;-88
2022/10/07 10:10:58;;;;;;;5.93;2.22;;;;;;;15.28;69.95;102254.56;4976145;28;20035;-86
2022/10/07 10:13:39;;;;;;;9.57;2.30;;;;;;;15.38;71.10;102259.66;4975818;28;20380;-88
2022/10/07 10:16:26;;;;;;;7.00;2.05;;;;;;;15.47;72.09;102249.09;4976446;28;20029;-88
2022/10/07 10:18:58;;;;;;;4.97;2.13;;;;;;;15.63;69.38;102254.97;4974897;28;20515;-87
2022/10/07 10:21:28;;;;;;;6.10;1.90;;;;;;;15.72;69.03;102248.75;4976269;28;20434;-89
2022/10/07 10:23:59;;;;;;;7.25;2.05;;;;;;;15.80;70.90;102241.63;4975789;28;20031;-87
2022/10/07 10:26:48;;;;;;;3.28;1.88;;;;;;;15.87;69.12;102230.25;4974736;28;20030;-88
2022/10/07 10:29:35;;;;;;;6.25;1.92;;;;;;;15.84;70.27;102232.91;4975416;28;20483;-88
2022/10/07 10:32:00;;;;;;;3.65;1.88;;;;;;;15.82;68.89;102218.94;4975359;28;20022;-87
2022/10/07 10:34:33;;;;;;;8.23;2.00;;;;;;;15.91;66.74;102220.56;4975510;28;20031;-89
2022/10/07 10:37:07;;;;;;;7.43;2.20;;;;;;;16.04;68.54;102211.63;4975815;28;20034;-87
2022/10/07 10:39:32;;;;;;;5.85;1.70;;;;;;;16.19;64.51;102210.50;4975487;28;20042;-88
2022/10/07 10:42:01;;;;;;;3.83;1.80;;;;;;;16.28;67.86;102206.84;4975936;28;20466;-88
2022/10/07 10:44:45;;;;;;;5.47;1.90;;;;;;;16.31;67.00;102206.81;4975651;28;20468;-88
2022/10/07 10:47:32;;;;;;;6.22;2.00;;;;;;;16.36;64.83;102197.13;4975776;28;20062;-89
2022/10/07 10:50:11;;;;;;;6.32;1.95;;;;;;;16.44;66.84;102196.97;4976077;28;20050;-88
2022/10/07 10:52:43;;;;;;;7.70;2.15;;;;;;;16.46;65.54;102187.31;4976219;28;20050;-89
2022/10/07 10:55:20;;;;;;;8.52;2.13;;;;;;;16.49;62.51;102191.66;4975880;28;20042;-89
2022/10/07 10:57:54;;;;;;;6.70;1.98;;;;;;;16.42;63.67;102182.16;4976169;28;20042;-89
2022/10/07 11:00:21;;;;;;;4.20;1.58;;;;;;;16.34;66.05;102177.06;4975557;28;20251;-88
2022/10/07 11:02:59;;;;;;;6.43;1.92;;;;;;;16.31;65.56;102179.75;4975684;28;20026;-88
2022/10/07 11:05:34;;;;;;;4.82;1.38;;;;;;;16.32;66.04;102171.00;4975865;28;20073;-88
2022/10/07 11:08:10;;;;;;;4.68;1.77;;;;;;;16.39;64.33;102183.09;4975064;28;20057;-89
2022/10/07 11:11:01;;;;;;;3.55;1.73;;;;;;;16.41;66.21;102176.06;4975770;28;20031;-90
2022/10/07 11:13:39;;;;;;;2.33;1.35;;;;;;;16.43;65.20;102168.19;4975632;28;20023;-88
2022/10/07 11:16:16;;;;;;;4.50;1.60;;;;;;;16.48;66.01;102167.19;4975043;28;20049;-89
2022/10/07 11:18:50;;;;;;;3.08;1.40;;;;;;;16.53;64.09;102156.63;4975298;28;20037;-87
2022/10/07 11:21:23;;;;;;;4.22;1.48;;;;;;;16.59;63.93;102163.50;4975608;28;20031;-87
2022/10/07 11:24:09;;;;;;;3.15;1.40;;;;;;;16.65;64.86;102161.63;4975549;28;20026;-86
2022/10/07 11:26:45;;;;;;;3.42;1.40;;;;;;;16.67;64.01;102151.09;4975551;28;20026;-87
2022/10/07 11:29:22;;;;;;;4.50;1.55;;;;;;;16.68;64.11;102152.84;4974839;28;20484;-86
2022/10/07 11:32:20;;;;;;;4.50;1.80;;;;;;;16.72;62.66;102140.56;4975808;28;20027;-87
2022/10/07 11:35:00;;;;;;;7.63;1.70;;;;;;;16.76;62.83;102129.97;4965696;28;20039;-87
2022/10/07 11:37:57;;;;;;;4.82;1.77;;;;;;;16.81;61.92;102127.25;4974862;28;20037;-87
2022/10/07 11:40:25;;;;;;;8.20;2.05;;;;;;;16.77;63.16;102123.84;4972756;28;20031;-86
2022/10/07 11:42:53;;;;;;;5.18;1.77;;;;;;;16.73;63.65;102116.91;4975456;28;20371;-88
2022/10/07 11:45:28;;;;;;;7.20;2.00;;;;;;;16.74;62.60;102108.16;4975478;28;20050;-88
2022/10/07 11:47:59;;;;;;;4.20;1.67;;;;;;;16.79;61.65;102101.03;4974492;28;20023;-84
2022/10/07 11:50:30;;;;;;;5.43;1.85;;;;;;;16.85;63.50;102099.19;4973371;28;20046;-84
2022/10/07 11:53:03;;;;;;;4.82;1.60;;;;;;;16.85;60.47;102094.81;4974626;28;20031;-84